Pagina principale
METAR-TAF:

METAR-TAF

Aeroporti :

Aeroporto di Eindhoven

Eindhoven, Paesi Bassi

latitudine: 51-27N, longitudine: 005-25E, altezza: 23 m

Osservazione

Il bollettino è stato emesso 38 minuti fa, alle 20:25 UTC
Vento 10 kt da est, variando fra est/nord-est e sud/sud-est
Temperature 5°C
Umidità 87%
Pressione 1001 hPa
Visibilità 10 km o più
nessuna nube inferiore a 1500 m e nessun cumulonembo
foschia

METAR: EHEH 222025Z AUTO 11009KT 070V150 7000 BR OVC260 05/03 Q1001 WHT 10010KT CAVOK

Ora: 22:03 (21:03 UTC)

Previsione

Il bollettino è stato emesso 3 ore e 24 minuti fa, alle 17:39 UTC
Previsione valida dal 22 alle 18 UTC al 23 alle 24 UTC
Vento 8 kt da est
Visibilità 10 km o più
nessuna nube inferiore a 1500 m e nessun cumulonembo
Temporaneamente
dal 23 alle 09 UTC al 23 alle 15 UTC
Vento 10 kt da est/nord-est con raffiche fino a 20 kt

TAF: EHEH 221739Z 2218/2324 10008KT CAVOK TEMPO 2309/2315 07010G20KT

Osservazioni e previsioni meteorologiche di più di 4000 aeroporti (messaggi METAR e TAF).

Le stazioni disponibili sono rappresentate dai dischi gialli e rossi sulla carta.

Puntare il mouse per vedere il nome della stazione.

Clicca sopra per visualizzare le osservazioni e previsioni meteorologiche.

Per cambiare la mappa : fare clic sui pulsanti verdi con una croce nera per ingrandire, il pulsante verde con un trattino per diminuire, o sulla freccia verde per le mappe adiacenti.


METAR-TAF: